Time;durP1;ratioP1;P1;durP2;ratioP2;P2;SDS_P1;SDS_P2;PMS_P1;PMS_P2;Temp;Humidity;BMP_temperature;BMP_pressure;BME280_temperature;BME280_humidity;BME280_pressure;Samples;Min_cycle;Max_cycle;Signal;HPM_P1;HPM_P2
2024/01/22 00:00:25;;;;;;;2.00;1.67;;;3.50;1.00;;;;;;5039529;28;20046;-73
2024/01/22 00:02:51;;;;;;;0.52;0.52;;;3.60;1.00;;;;;;5040846;28;20021;-72
2024/01/22 00:05:18;;;;;;;1.67;1.58;;;3.60;1.00;;;;;;5043576;28;20042;-73
2024/01/22 00:07:44;;;;;;;0.30;0.30;;;3.60;1.00;;;;;;5043019;28;20143;-72
2024/01/22 00:10:10;;;;;;;0.22;0.22;;;3.50;1.00;;;;;;5041867;28;20048;-72
2024/01/22 00:12:37;;;;;;;0.52;0.52;;;3.40;1.00;;;;;;5043961;28;20029;-73
2024/01/22 00:15:03;;;;;;;0.20;0.20;;;3.40;1.00;;;;;;5039261;28;20036;-73
2024/01/22 00:17:30;;;;;;;0.10;0.10;;;3.40;1.00;;;;;;5038796;28;20040;-72
2024/01/22 00:19:56;;;;;;;0.50;0.50;;;3.30;1.00;;;;;;5043797;28;20032;-72
2024/01/22 00:22:22;;;;;;;0.77;0.65;;;3.40;1.00;;;;;;5038493;28;20466;-74
2024/01/22 00:24:48;;;;;;;0.57;0.57;;;3.30;1.00;;;;;;5031402;28;20044;-74
2024/01/22 00:27:14;;;;;;;0.22;0.22;;;3.30;1.00;;;;;;5042472;28;20047;-74
2024/01/22 00:29:40;;;;;;;0.20;0.20;;;3.20;1.00;;;;;;5037967;28;20021;-74
2024/01/22 00:32:08;;;;;;;0.63;0.50;;;3.30;1.00;;;;;;5042631;28;20040;-74
2024/01/22 00:34:34;;;;;;;0.45;0.45;;;3.20;1.00;;;;;;5039587;28;20471;-73
2024/01/22 00:37:00;;;;;;;1.00;0.52;;;3.20;1.00;;;;;;5040474;28;20033;-73
2024/01/22 00:39:27;;;;;;;0.70;0.57;;;3.20;1.10;;;;;;5038746;28;20037;-73
2024/01/22 00:41:53;;;;;;;0.63;0.63;;;3.30;1.00;;;;;;5037520;28;20351;-73
2024/01/22 00:44:19;;;;;;;0.85;0.85;;;3.40;1.00;;;;;;5042240;28;20034;-74
2024/01/22 00:46:45;;;;;;;1.55;1.10;;;3.40;1.00;;;;;;5044244;28;20024;-73
2024/01/22 00:49:11;;;;;;;1.00;0.95;;;3.40;1.00;;;;;;5036024;28;20026;-75
2024/01/22 00:51:38;;;;;;;0.20;0.20;;;3.50;1.00;;;;;;5040951;28;20032;-73
2024/01/22 00:54:04;;;;;;;0.40;0.40;;;3.50;1.00;;;;;;5039735;28;20025;-73
2024/01/22 00:56:30;;;;;;;1.55;1.17;;;3.60;1.00;;;;;;5046185;28;20021;-74
2024/01/22 00:58:56;;;;;;;1.30;1.20;;;3.60;1.00;;;;;;5041569;28;20045;-73
2024/01/22 01:01:23;;;;;;;0.43;0.43;;;3.70;1.00;;;;;;5040449;28;20351;-74
2024/01/22 01:03:49;;;;;;;1.58;0.40;;;3.80;1.00;;;;;;5041103;28;20056;-74
2024/01/22 01:06:15;;;;;;;2.45;0.95;;;3.80;1.00;;;;;;5040701;28;20454;-73
2024/01/22 01:08:42;;;;;;;0.25;0.17;;;3.90;1.00;;;;;;5043294;28;20044;-73
2024/01/22 01:11:08;;;;;;;0.43;0.40;;;3.80;1.00;;;;;;5040794;28;20036;-73
2024/01/22 01:13:34;;;;;;;0.20;0.20;;;3.80;1.00;;;;;;5038319;28;20108;-73
2024/01/22 01:16:01;;;;;;;2.83;1.75;;;3.90;1.00;;;;;;5046552;28;20394;-73
2024/01/22 01:18:27;;;;;;;1.88;1.13;;;3.80;1.00;;;;;;5041444;28;20053;-73
2024/01/22 01:20:53;;;;;;;0.47;0.47;;;3.80;1.00;;;;;;5043770;28;20044;-74
2024/01/22 01:23:19;;;;;;;0.13;0.13;;;3.80;1.00;;;;;;5038763;28;20036;-74
2024/01/22 01:25:46;;;;;;;0.98;0.98;;;3.80;1.00;;;;;;5045416;28;20403;-73
2024/01/22 01:28:12;;;;;;;0.30;0.30;;;3.80;1.00;;;;;;5042385;28;20037;-74
2024/01/22 01:30:38;;;;;;;0.47;0.47;;;3.80;1.00;;;;;;5035562;28;20128;-74
2024/01/22 01:33:05;;;;;;;0.38;0.38;;;3.80;1.00;;;;;;5039499;28;20059;-74
2024/01/22 01:35:31;;;;;;;0.20;0.20;;;3.90;1.00;;;;;;5055194;28;20029;-74
2024/01/22 01:37:58;;;;;;;0.43;0.43;;;3.90;1.00;;;;;;5039909;28;20043;-74
2024/01/22 01:40:24;;;;;;;0.35;0.35;;;3.80;1.00;;;;;;5038273;28;20052;-73
2024/01/22 01:42:50;;;;;;;0.38;0.38;;;4.00;99.90;;;;;;5030644;28;20052;-74
2024/01/22 01:45:17;;;;;;;0.47;0.43;;;4.10;99.90;;;;;;5040310;28;20026;-73
2024/01/22 01:47:47;;;;;;;18.15;1.65;;;4.10;1.00;;;;;;5038849;28;20148;-74
2024/01/22 01:50:17;;;;;;;0.10;0.10;;;4.10;99.90;;;;;;5053361;28;20820;-73
2024/01/22 01:52:44;;;;;;;1.80;1.15;;;4.10;99.90;;;;;;5041435;28;20040;-73
2024/01/22 01:55:11;;;;;;;0.25;0.25;;;4.20;99.90;;;;;;5040033;28;20029;-74
2024/01/22 01:57:39;;;;;;;1.52;1.25;;;4.30;99.90;;;;;;5042152;28;20053;-72
2024/01/22 02:00:09;;;;;;;0.65;0.57;;;4.20;99.90;;;;;;5038434;28;20026;-73
2024/01/22 02:02:39;;;;;;;0.10;0.10;;;4.30;99.90;;;;;;5042234;28;20041;-72
2024/01/22 02:05:07;;;;;;;14.43;6.65;;;4.40;99.90;;;;;;5041896;28;20037;-73
2024/01/22 02:07:33;;;;;;;8.02;6.13;;;4.40;99.90;;;;;;5052633;28;20355;-73
2024/01/22 02:10:00;;;;;;;13.88;8.55;;;4.40;99.90;;;;;;5037935;28;20029;-73
2024/01/22 02:12:26;;;;;;;3.00;2.70;;;4.40;99.90;;;;;;5038431;28;20060;-73
2024/01/22 02:14:52;;;;;;;0.73;0.73;;;4.30;99.90;;;;;;5037178;28;20371;-72
2024/01/22 02:17:19;;;;;;;2.80;2.33;;;4.30;99.90;;;;;;5041326;28;20029;-73
2024/01/22 02:19:45;;;;;;;2.10;1.45;;;4.20;99.90;;;;;;5038090;28;20026;-72
2024/01/22 02:22:11;;;;;;;0.60;0.60;;;4.20;99.90;;;;;;5029453;28;20041;-73
2024/01/22 02:24:38;;;;;;;1.98;1.88;;;4.10;99.90;;;;;;5037034;28;20037;-73
2024/01/22 02:27:04;;;;;;;1.40;1.30;;;4.10;99.90;;;;;;5045358;28;20045;-73
2024/01/22 02:29:31;;;;;;;0.90;0.90;;;4.10;99.90;;;;;;5038916;28;20458;-72
2024/01/22 02:31:57;;;;;;;9.43;6.28;;;4.00;99.90;;;;;;5038151;28;20025;-74
2024/01/22 02:34:24;;;;;;;4.82;2.90;;;4.00;99.90;;;;;;5045919;28;20340;-74
2024/01/22 02:36:50;;;;;;;2.00;1.77;;;4.00;99.90;;;;;;5038053;28;20040;-74
2024/01/22 02:39:16;;;;;;;2.30;1.98;;;4.00;99.90;;;;;;5041589;28;20037;-72
2024/01/22 02:41:42;;;;;;;0.55;0.55;;;4.10;99.90;;;;;;5037752;28;20504;-73
2024/01/22 02:44:09;;;;;;;0.77;0.77;;;4.10;99.90;;;;;;5040744;28;20033;-72
2024/01/22 02:46:35;;;;;;;3.55;2.85;;;4.20;99.90;;;;;;5042453;28;20042;-73
2024/01/22 02:49:01;;;;;;;6.97;1.50;;;4.20;99.90;;;;;;5042437;28;20025;-72
2024/01/22 02:51:27;;;;;;;0.35;0.32;;;4.10;99.90;;;;;;5037091;28;20029;-73
2024/01/22 02:53:53;;;;;;;0.20;0.20;;;4.20;99.90;;;;;;5038698;28;20025;-73
2024/01/22 02:56:24;;;;;;;0.80;0.80;;;4.20;99.90;;;;;;5036499;28;20040;-73
2024/01/22 02:58:50;;;;;;;0.57;0.57;;;4.10;99.90;;;;;;5035878;28;20045;-73
2024/01/22 03:01:17;;;;;;;0.55;0.55;;;4.10;99.90;;;;;;5036642;28;20029;-72
2024/01/22 03:03:43;;;;;;;0.50;0.50;;;4.20;99.90;;;;;;5036772;28;20140;-73
2024/01/22 03:06:09;;;;;;;1.45;1.30;;;4.20;99.90;;;;;;5040238;28;20036;-73
2024/01/22 03:08:35;;;;;;;0.20;0.20;;;4.20;99.90;;;;;;5043582;28;20470;-73
2024/01/22 03:11:02;;;;;;;0.25;0.25;;;4.20;99.90;;;;;;5041274;28;20030;-73
2024/01/22 03:13:28;;;;;;;1.33;1.27;;;4.20;99.90;;;;;;5037985;28;20053;-73
2024/01/22 03:15:54;;;;;;;0.30;0.30;;;4.10;99.90;;;;;;5042265;28;20021;-72
2024/01/22 03:18:20;;;;;;;0.20;0.20;;;4.20;99.90;;;;;;5041479;28;20033;-73
2024/01/22 03:20:47;;;;;;;0.75;0.55;;;4.10;99.90;;;;;;5039305;28;20029;-73
2024/01/22 03:23:13;;;;;;;0.35;0.35;;;4.10;99.90;;;;;;5041213;28;20438;-72
2024/01/22 03:25:39;;;;;;;1.13;0.95;;;4.10;99.90;;;;;;5041454;28;20021;-73
2024/01/22 03:28:05;;;;;;;0.70;0.68;;;4.00;99.90;;;;;;5044436;28;20051;-73
2024/01/22 03:30:31;;;;;;;0.10;0.10;;;4.10;99.90;;;;;;5039190;28;20942;-73
2024/01/22 03:32:57;;;;;;;0.50;0.50;;;4.10;99.90;;;;;;5050748;28;20045;-73
2024/01/22 03:35:24;;;;;;;0.25;0.25;;;4.10;99.90;;;;;;5039476;28;20037;-72
2024/01/22 03:37:50;;;;;;;0.32;0.32;;;4.20;99.90;;;;;;5044029;28;20397;-73
2024/01/22 03:40:16;;;;;;;0.10;0.10;;;4.10;99.90;;;;;;5040239;28;20462;-73
2024/01/22 03:42:42;;;;;;;0.30;0.30;;;4.10;99.90;;;;;;5039460;28;20034;-73
2024/01/22 03:45:09;;;;;;;0.40;0.40;;;4.10;99.90;;;;;;5050820;28;20383;-72
2024/01/22 03:47:35;;;;;;;0.20;0.20;;;4.20;99.90;;;;;;5041100;28;20034;-73
2024/01/22 03:50:03;;;;;;;8.95;1.00;;;4.20;99.90;;;;;;5038805;28;20429;-71
2024/01/22 03:52:29;;;;;;;0.10;0.10;;;4.30;99.90;;;;;;5039542;28;20021;-73
2024/01/22 03:54:55;;;;;;;0.52;0.52;;;4.40;99.90;;;;;;5037831;28;20025;-72
2024/01/22 03:57:22;;;;;;;0.20;0.20;;;4.40;99.90;;;;;;5041125;28;20034;-74
2024/01/22 03:59:49;;;;;;;0.10;0.10;;;4.30;99.90;;;;;;5043281;28;20037;-74
2024/01/22 04:02:15;;;;;;;0.35;0.32;;;4.30;99.90;;;;;;5042453;28;20366;-73
2024/01/22 04:04:42;;;;;;;0.70;0.70;;;4.20;99.90;;;;;;5038219;28;20036;-74
2024/01/22 04:07:08;;;;;;;0.10;0.10;;;4.10;99.90;;;;;;5040933;28;20038;-74
2024/01/22 04:09:34;;;;;;;0.10;0.10;;;4.00;99.90;;;;;;5042206;28;20045;-73
2024/01/22 04:12:01;;;;;;;0.85;0.70;;;4.00;99.90;;;;;;5038644;28;20026;-74
2024/01/22 04:14:27;;;;;;;0.52;0.45;;;4.00;99.90;;;;;;5038250;28;20037;-74
2024/01/22 04:16:54;;;;;;;0.98;0.93;;;4.00;99.90;;;;;;5040075;28;20039;-75
2024/01/22 04:19:20;;;;;;;0.10;0.10;;;4.00;99.90;;;;;;5045027;28;20036;-75
2024/01/22 04:21:47;;;;;;;0.63;0.63;;;4.10;99.90;;;;;;5038562;28;20053;-74
2024/01/22 04:24:13;;;;;;;0.15;0.15;;;4.10;99.90;;;;;;5041711;28;20033;-74
2024/01/22 04:26:40;;;;;;;0.32;0.32;;;4.20;99.90;;;;;;5039271;28;20029;-74
2024/01/22 04:29:06;;;;;;;0.20;0.20;;;4.30;99.90;;;;;;5043408;28;20033;-74
2024/01/22 04:31:32;;;;;;;0.52;0.52;;;4.20;99.90;;;;;;5039612;28;20397;-74
2024/01/22 04:33:59;;;;;;;0.63;0.43;;;4.20;99.90;;;;;;5039437;28;20036;-74
2024/01/22 04:36:25;;;;;;;0.28;0.28;;;4.20;99.90;;;;;;5039500;28;20045;-74
2024/01/22 04:38:51;;;;;;;1.08;0.75;;;4.20;99.90;;;;;;5041652;28;20366;-74
2024/01/22 04:41:17;;;;;;;0.93;0.73;;;4.20;99.90;;;;;;5039242;28;20052;-74
2024/01/22 04:43:44;;;;;;;0.15;0.15;;;4.20;99.90;;;;;;5039777;28;20040;-74
2024/01/22 04:46:10;;;;;;;0.15;0.15;;;4.30;99.90;;;;;;5039909;28;20044;-73
2024/01/22 04:48:37;;;;;;;0.50;0.50;;;4.20;99.90;;;;;;5039314;28;20053;-73
2024/01/22 04:51:04;;;;;;;1.00;0.43;;;4.20;99.90;;;;;;5037279;28;20033;-74
2024/01/22 04:53:30;;;;;;;1.15;0.65;;;4.20;99.90;;;;;;5041231;28;20383;-74
2024/01/22 04:55:56;;;;;;;1.30;1.00;;;4.20;99.90;;;;;;5037478;28;20029;-76
2024/01/22 04:58:22;;;;;;;4.13;2.75;;;4.10;99.90;;;;;;5042792;28;20029;-75
2024/01/22 05:00:48;;;;;;;8.40;7.38;;;4.10;99.90;;;;;;5038070;28;20356;-75
2024/01/22 05:03:14;;;;;;;12.85;8.25;;;4.10;99.90;;;;;;5040715;28;20073;-74
2024/01/22 05:05:40;;;;;;;1.33;1.27;;;4.10;99.90;;;;;;5046089;28;20368;-74
2024/01/22 05:08:07;;;;;;;0.28;0.28;;;4.10;99.90;;;;;;5040190;28;20490;-74
2024/01/22 05:10:33;;;;;;;0.50;0.50;;;4.00;99.90;;;;;;5042781;28;20033;-75
2024/01/22 05:12:59;;;;;;;3.08;2.22;;;4.00;99.90;;;;;;5043200;28;20033;-75
2024/01/22 05:15:25;;;;;;;0.10;0.10;;;4.00;99.90;;;;;;5039171;28;20374;-74
2024/01/22 05:17:51;;;;;;;0.40;0.40;;;4.10;99.90;;;;;;5035550;28;20029;-74
2024/01/22 05:20:17;;;;;;;1.42;0.77;;;4.10;99.90;;;;;;5041094;28;20025;-74
2024/01/22 05:22:45;;;;;;;1.05;1.00;;;4.10;99.90;;;;;;5040712;28;20351;-74
2024/01/22 05:25:12;;;;;;;1.48;1.45;;;4.00;99.90;;;;;;5039891;28;20485;-74
2024/01/22 05:27:41;;;;;;;0.55;0.35;;;4.00;99.90;;;;;;5038719;28;20032;-74
2024/01/22 05:30:08;;;;;;;1.33;0.88;;;4.10;99.90;;;;;;5034903;28;20029;-73
2024/01/22 05:32:36;;;;;;;1.25;1.13;;;4.10;99.90;;;;;;5041100;28;20319;-73
2024/01/22 05:35:02;;;;;;;0.20;0.20;;;4.00;99.90;;;;;;5039805;28;20037;-73
2024/01/22 05:37:28;;;;;;;0.15;0.15;;;4.00;99.90;;;;;;5039280;28;20041;-74
2024/01/22 05:39:55;;;;;;;0.35;0.35;;;4.00;99.90;;;;;;5035789;28;20049;-73
2024/01/22 05:42:21;;;;;;;0.68;0.68;;;4.10;99.90;;;;;;5046308;28;20396;-73
2024/01/22 05:44:47;;;;;;;0.30;0.30;;;4.00;99.90;;;;;;5041791;28;20370;-73
2024/01/22 05:47:14;;;;;;;0.25;0.25;;;4.00;99.90;;;;;;5037127;28;20029;-73
2024/01/22 05:49:41;;;;;;;0.10;0.10;;;4.00;99.90;;;;;;5035061;28;20028;-73
2024/01/22 05:52:07;;;;;;;0.17;0.17;;;4.10;99.90;;;;;;5039334;28;20033;-74
2024/01/22 05:54:34;;;;;;;0.20;0.20;;;4.00;99.90;;;;;;5038598;28;20344;-73
2024/01/22 05:57:00;;;;;;;0.10;0.10;;;4.00;99.90;;;;;;5041752;28;20044;-73
2024/01/22 05:59:26;;;;;;;1.60;0.80;;;4.20;99.90;;;;;;5038279;28;20026;-72
2024/01/22 06:01:54;;;;;;;0.65;0.52;;;4.30;99.90;;;;;;5039517;28;20038;-74
2024/01/22 06:04:22;;;;;;;1.90;1.10;;;4.40;99.90;;;;;;5039310;28;20052;-75
2024/01/22 06:06:49;;;;;;;0.40;0.40;;;4.50;99.90;;;;;;5038640;28;20037;-72
2024/01/22 06:09:16;;;;;;;0.10;0.10;;;4.60;99.90;;;;;;5042124;28;20025;-72
2024/01/22 06:11:43;;;;;;;0.13;0.13;;;4.70;99.90;;;;;;5036078;28;20375;-73
2024/01/22 06:14:09;;;;;;;0.20;0.20;;;4.70;99.90;;;;;;5038825;28;20045;-72
2024/01/22 06:16:35;;;;;;;0.10;0.10;;;4.50;99.90;;;;;;5035110;28;20033;-72
2024/01/22 06:19:02;;;;;;;0.38;0.38;;;4.40;99.90;;;;;;5039425;28;20025;-72
2024/01/22 06:21:28;;;;;;;0.70;0.52;;;4.30;99.90;;;;;;5035416;28;20033;-72
2024/01/22 06:23:54;;;;;;;0.20;0.10;;;4.20;99.90;;;;;;5035998;28;20369;-72
2024/01/22 06:26:22;;;;;;;0.20;0.20;;;4.20;99.90;;;;;;5039827;28;20029;-72
2024/01/22 06:28:48;;;;;;;0.40;0.40;;;4.10;99.90;;;;;;5043096;28;20060;-72
2024/01/22 06:31:15;;;;;;;0.30;0.30;;;4.10;99.90;;;;;;5038492;28;20347;-74
2024/01/22 06:33:41;;;;;;;0.13;0.13;;;4.20;99.90;;;;;;5039066;28;20036;-74
2024/01/22 06:36:07;;;;;;;0.45;0.45;;;4.20;99.90;;;;;;5040010;28;20021;-74
2024/01/22 06:38:34;;;;;;;0.10;0.10;;;4.20;99.90;;;;;;5039462;28;20371;-74
2024/01/22 06:41:00;;;;;;;0.15;0.15;;;4.20;99.90;;;;;;5039476;28;20144;-74
2024/01/22 06:43:26;;;;;;;0.10;0.10;;;4.20;99.90;;;;;;5041201;28;20076;-73
2024/01/22 06:45:53;;;;;;;0.63;0.55;;;4.30;99.90;;;;;;5039261;28;20046;-75
2024/01/22 06:48:19;;;;;;;0.20;0.20;;;4.40;99.90;;;;;;5046948;28;20036;-74
2024/01/22 06:50:45;;;;;;;0.70;0.70;;;4.50;99.90;;;;;;5047558;28;20029;-74
2024/01/22 06:53:11;;;;;;;0.73;0.73;;;4.60;99.90;;;;;;5046308;28;20033;-73
2024/01/22 06:55:38;;;;;;;5.28;1.65;;;4.70;99.90;;;;;;5048388;28;20064;-73
2024/01/22 06:58:04;;;;;;;1.85;1.75;;;4.70;99.90;;;;;;5050339;28;20386;-74
2024/01/22 07:00:32;;;;;;;1.15;1.05;;;4.70;99.90;;;;;;5050301;28;20045;-74
2024/01/22 07:02:59;;;;;;;0.32;0.32;;;4.70;99.90;;;;;;5049491;28;20025;-74
2024/01/22 07:05:26;;;;;;;0.63;0.63;;;4.70;99.90;;;;;;5048049;28;20025;-73
2024/01/22 07:07:53;;;;;;;0.35;0.35;;;4.70;99.90;;;;;;5050106;28;20366;-74
2024/01/22 07:10:21;;;;;;;0.20;0.20;;;4.70;99.90;;;;;;5050833;28;20048;-73
2024/01/22 07:12:47;;;;;;;0.10;0.10;;;4.70;99.90;;;;;;5050538;28;20032;-74
2024/01/22 07:15:13;;;;;;;0.50;0.50;;;4.70;99.90;;;;;;5045217;28;20029;-74
2024/01/22 07:17:40;;;;;;;1.20;0.65;;;4.70;99.90;;;;;;5041361;28;20029;-74
2024/01/22 07:20:13;;;;;;;0.38;0.20;;;4.80;99.90;;;;;;5044135;28;20028;-74
2024/01/22 07:22:44;;;;;;;0.10;0.10;;;4.80;99.90;;;;;;5039985;28;20402;-73
2024/01/22 07:25:10;;;;;;;0.70;0.70;;;4.80;99.90;;;;;;5042077;28;20033;-74
2024/01/22 07:27:41;;;;;;;0.38;0.20;;;4.80;99.90;;;;;;5041712;28;20029;-74
2024/01/22 07:30:11;;;;;;;;;;;4.80;99.90;;;;;;5047868;28;20044;-73
2024/01/22 07:32:38;;;;;;;0.20;0.20;;;4.70;99.90;;;;;;5043896;28;19905;-73
2024/01/22 07:35:07;;;;;;;2.50;2.28;;;4.80;99.90;;;;;;5040646;28;20052;-73
2024/01/22 07:37:35;;;;;;;1.88;1.60;;;4.80;99.90;;;;;;5039245;28;20041;-73
2024/01/22 07:40:04;;;;;;;1.67;1.55;;;4.90;99.90;;;;;;5048089;28;20041;-73
2024/01/22 07:42:41;;;;;;;2.65;2.45;;;4.90;99.90;;;;;;5043720;28;20041;-72
2024/01/22 07:45:09;;;;;;;2.28;2.08;;;5.10;99.90;;;;;;5040769;28;20037;-72
2024/01/22 07:47:35;;;;;;;7.15;4.30;;;5.20;99.90;;;;;;5040840;28;20362;-72
2024/01/22 07:50:06;;;;;;;2.22;2.03;;;5.20;99.90;;;;;;5040462;28;20466;-73
2024/01/22 07:52:33;;;;;;;0.55;0.52;;;5.30;99.90;;;;;;5037871;28;20030;-74
2024/01/22 07:55:00;;;;;;;0.57;0.57;;;5.40;99.90;;;;;;5039571;28;20056;-75
2024/01/22 07:57:26;;;;;;;1.77;1.45;;;5.40;96.40;;;;;;5038053;28;20040;-72
2024/01/22 07:59:52;;;;;;;0.10;0.10;;;5.60;77.50;;;;;;5036065;28;20036;-73
2024/01/22 08:02:19;;;;;;;0.85;0.82;;;5.70;58.50;;;;;;5041805;28;20413;-73
2024/01/22 08:04:45;;;;;;;0.45;0.45;;;5.90;40.40;;;;;;5039986;28;20034;-75
2024/01/22 08:07:11;;;;;;;0.70;0.70;;;5.90;64.40;;;;;;5041151;28;20462;-72
2024/01/22 08:09:38;;;;;;;0.43;0.40;;;5.90;97.30;;;;;;5036572;28;20033;-73
2024/01/22 08:12:04;;;;;;;0.73;0.73;;;5.90;99.90;;;;;;5043956;28;20033;-74
2024/01/22 08:14:31;;;;;;;0.40;0.40;;;5.90;99.90;;;;;;5041159;28;20021;-73
2024/01/22 08:16:57;;;;;;;0.10;0.10;;;5.80;99.90;;;;;;5040907;28;20029;-73
2024/01/22 08:19:23;;;;;;;0.30;0.30;;;5.80;99.90;;;;;;5038563;28;20037;-73
2024/01/22 08:21:50;;;;;;;0.13;0.13;;;5.90;99.90;;;;;;5038388;28;20041;-76
2024/01/22 08:24:16;;;;;;;0.10;0.10;;;6.10;99.90;;;;;;5039827;28;20029;-75
2024/01/22 08:26:42;;;;;;;0.10;0.10;;;6.20;99.90;;;;;;5041666;28;20036;-75
2024/01/22 08:29:08;;;;;;;0.73;0.73;;;6.30;99.90;;;;;;5042273;28;20044;-75
2024/01/22 08:31:35;;;;;;;0.50;0.50;;;6.30;99.90;;;;;;5038017;28;20046;-77
2024/01/22 08:34:02;;;;;;;0.10;0.10;;;6.40;99.90;;;;;;5043447;28;20048;-76
2024/01/22 08:36:29;;;;;;;2.05;1.55;;;6.40;99.90;;;;;;5041774;28;20045;-77
2024/01/22 08:38:55;;;;;;;0.20;0.20;;;6.40;99.90;;;;;;5040606;28;20029;-76
2024/01/22 08:41:26;;;;;;;3.58;0.80;;;6.20;1.00;;;;;;5038303;28;20061;-77
2024/01/22 08:43:59;;;;;;;0.32;0.32;;;6.00;3.20;;;;;;5039378;28;20025;-76
2024/01/22 08:46:26;;;;;;;1.33;0.52;;;5.90;99.60;;;;;;5039342;28;20367;-76
2024/01/22 08:48:52;;;;;;;0.20;0.20;;;5.70;99.90;;;;;;5038702;28;20034;-77
2024/01/22 08:51:18;;;;;;;0.20;0.20;;;5.70;99.90;;;;;;5038086;28;20026;-77
2024/01/22 08:53:44;;;;;;;0.20;0.20;;;5.70;99.90;;;;;;5040152;28;20358;-76
2024/01/22 08:56:11;;;;;;;1.10;0.50;;;5.70;99.90;;;;;;5039313;28;20474;-76
2024/01/22 08:58:37;;;;;;;0.15;0.15;;;5.70;99.90;;;;;;5040311;28;20030;-77
2024/01/22 09:01:05;;;;;;;1.45;1.35;;;5.70;99.90;;;;;;5037298;28;20038;-77
2024/01/22 09:03:32;;;;;;;0.10;0.10;;;5.80;99.90;;;;;;5038245;28;20042;-77
2024/01/22 09:06:03;;;;;;;0.30;0.20;;;5.80;99.90;;;;;;5038835;28;20033;-76
2024/01/22 09:08:29;;;;;;;1.75;1.00;;;5.80;99.90;;;;;;5045151;28;20049;-76
2024/01/22 09:10:55;;;;;;;0.50;0.50;;;5.80;99.90;;;;;;5039736;28;20029;-76
2024/01/22 09:13:21;;;;;;;0.10;0.10;;;5.90;99.90;;;;;;5036434;28;20045;-76
2024/01/22 09:15:48;;;;;;;0.15;0.15;;;5.90;99.90;;;;;;5037956;28;20033;-76
2024/01/22 09:18:15;;;;;;;0.20;0.20;;;5.90;99.90;;;;;;5041186;28;20059;-77
2024/01/22 09:20:41;;;;;;;0.10;0.10;;;6.00;99.90;;;;;;5042245;28;20032;-76
2024/01/22 09:23:07;;;;;;;0.30;0.30;;;6.10;99.90;;;;;;5042094;28;20032;-76
2024/01/22 09:25:33;;;;;;;0.38;0.38;;;6.20;99.90;;;;;;5055346;28;20026;-76
2024/01/22 09:28:02;;;;;;;0.30;0.30;;;6.30;99.90;;;;;;5043551;28;20386;-75
2024/01/22 09:30:28;;;;;;;0.32;0.32;;;6.30;99.90;;;;;;5042356;28;20075;-76
2024/01/22 09:32:57;;;;;;;0.20;0.20;;;6.20;99.90;;;;;;5040114;28;20025;-77
2024/01/22 09:35:24;;;;;;;0.65;0.65;;;6.20;99.90;;;;;;5040315;28;20032;-76
2024/01/22 09:37:50;;;;;;;1.50;1.40;;;6.20;99.90;;;;;;5041133;28;20071;-76
2024/01/22 09:40:17;;;;;;;1.08;1.02;;;6.20;99.90;;;;;;5038169;28;20371;-76
2024/01/22 09:42:44;;;;;;;3.03;2.50;;;6.20;99.90;;;;;;5042332;28;20047;-75
2024/01/22 09:45:11;;;;;;;1.08;1.08;;;6.20;99.90;;;;;;5044492;28;20049;-76
2024/01/22 09:47:40;;;;;;;0.35;0.20;;;6.20;99.90;;;;;;5041964;28;20017;-75
2024/01/22 09:50:07;;;;;;;0.50;0.50;;;6.30;99.90;;;;;;5038135;28;20603;-74
2024/01/22 09:52:34;;;;;;;0.85;0.85;;;6.30;99.90;;;;;;5040325;28;20092;-75
2024/01/22 09:55:00;;;;;;;3.50;1.13;;;6.30;99.90;;;;;;5040119;28;20037;-75
2024/01/22 09:57:28;;;;;;;0.10;0.10;;;6.30;99.90;;;;;;5048113;28;20029;-75
2024/01/22 09:59:55;;;;;;;3.63;1.10;;;6.40;99.90;;;;;;5037188;28;20044;-75
2024/01/22 10:02:21;;;;;;;0.28;0.28;;;6.40;99.90;;;;;;5041563;28;20446;-75
2024/01/22 10:04:52;;;;;;;0.10;0.10;;;6.40;99.90;;;;;;5037489;28;20040;-77
2024/01/22 10:07:18;;;;;;;0.40;0.40;;;6.40;99.90;;;;;;5037265;28;20037;-76
2024/01/22 10:09:47;;;;;;;0.10;0.10;;;6.50;99.90;;;;;;5038572;28;20037;-76
2024/01/22 10:12:13;;;;;;;2.65;0.55;;;6.50;99.90;;;;;;5039482;28;20025;-77
2024/01/22 10:14:41;;;;;;;0.47;0.32;;;6.40;99.90;;;;;;5044600;28;20443;-77
2024/01/22 10:17:21;;;;;;;0.20;0.20;;;6.50;99.90;;;;;;5042145;28;20033;-77
2024/01/22 10:19:49;;;;;;;0.35;0.35;;;6.50;99.90;;;;;;5044792;28;20486;-76
2024/01/22 10:22:24;;;;;;;0.43;0.43;;;6.50;99.90;;;;;;5041285;28;20032;-77
2024/01/22 10:25:00;;;;;;;0.45;0.45;;;6.50;99.90;;;;;;5042689;28;20022;-76
2024/01/22 10:27:27;;;;;;;1.15;1.05;;;6.50;99.90;;;;;;5042485;28;20370;-76
2024/01/22 10:30:11;;;;;;;0.30;0.30;;;6.50;99.90;;;;;;5038367;28;20370;-77
2024/01/22 10:32:37;;;;;;;0.73;0.60;;;6.60;99.90;;;;;;5042919;28;20037;-77
2024/01/22 10:35:04;;;;;;;0.60;0.60;;;6.60;99.90;;;;;;5041754;28;20033;-76
2024/01/22 10:37:31;;;;;;;1.85;0.70;;;6.50;99.90;;;;;;5044262;28;20021;-76
2024/01/22 10:40:02;;;;;;;1.23;0.80;;;6.50;99.90;;;;;;5039460;28;20044;-77
2024/01/22 10:42:29;;;;;;;0.10;0.10;;;6.60;99.90;;;;;;5041972;28;20029;-76
2024/01/22 10:44:57;;;;;;;1.17;0.43;;;6.60;99.90;;;;;;5039576;28;20040;-76
2024/01/22 10:47:23;;;;;;;0.25;0.25;;;6.60;99.90;;;;;;5045849;28;20036;-76
2024/01/22 10:49:51;;;;;;;0.10;0.10;;;6.70;99.90;;;;;;5039837;28;20416;-75
2024/01/22 10:52:19;;;;;;;0.10;0.10;;;6.70;99.90;;;;;;5053148;28;20033;-77
2024/01/22 10:54:45;;;;;;;0.65;0.60;;;6.80;99.90;;;;;;5043741;28;20029;-76
2024/01/22 10:57:16;;;;;;;2.28;1.52;;;6.80;99.90;;;;;;5042729;28;20079;-76
2024/01/22 10:59:48;;;;;;;0.30;0.30;;;6.80;99.90;;;;;;5043437;28;20362;-76
2024/01/22 11:02:23;;;;;;;0.52;0.50;;;6.90;99.90;;;;;;5040208;28;20048;-76
2024/01/22 11:05:15;;;;;;;0.98;0.98;;;6.90;99.90;;;;;;5042146;28;20053;-76
2024/01/22 11:07:42;;;;;;;0.20;0.20;;;7.00;99.90;;;;;;5043169;28;20044;-76
2024/01/22 11:10:10;;;;;;;0.65;0.57;;;7.00;99.90;;;;;;5042986;28;20068;-76
2024/01/22 11:12:49;;;;;;;0.30;0.30;;;7.10;99.90;;;;;;5039982;28;20374;-76
2024/01/22 11:15:15;;;;;;;0.10;0.10;;;7.20;99.90;;;;;;5039276;28;20048;-77
2024/01/22 11:17:42;;;;;;;0.52;0.40;;;7.20;99.90;;;;;;5042201;28;20028;-76
2024/01/22 11:20:15;;;;;;;0.35;0.35;;;7.30;99.90;;;;;;5042178;28;20028;-76
2024/01/22 11:22:41;;;;;;;0.20;0.20;;;7.30;99.90;;;;;;5043112;28;20032;-76
2024/01/22 11:25:13;;;;;;;0.10;0.10;;;7.30;99.90;;;;;;5048096;28;20040;-76
2024/01/22 11:27:41;;;;;;;0.30;0.30;;;7.30;1.00;;;;;;5043734;28;20053;-76
2024/01/22 11:30:19;;;;;;;0.30;0.30;;;7.30;1.00;;;;;;5043585;28;20033;-76
2024/01/22 11:32:45;;;;;;;0.10;0.10;;;7.30;1.00;;;;;;5041410;28;20044;-76
2024/01/22 11:35:12;;;;;;;2.85;2.10;;;7.30;1.00;;;;;;5041079;28;20037;-76
2024/01/22 11:37:38;;;;;;;0.20;0.20;;;7.30;1.00;;;;;;5038832;28;20040;-77
2024/01/22 11:40:07;;;;;;;0.20;0.20;;;7.30;1.00;;;;;;5042935;28;20382;-76
2024/01/22 11:42:34;;;;;;;0.45;0.45;;;7.30;1.00;;;;;;5041258;28;20471;-75
2024/01/22 11:45:13;;;;;;;1.75;0.85;;;7.40;1.00;;;;;;5040781;28;20021;-76
2024/01/22 11:47:40;;;;;;;0.20;0.20;;;7.40;1.00;;;;;;5037190;28;20033;-76
2024/01/22 11:50:07;;;;;;;0.28;0.28;;;7.40;1.00;;;;;;5040726;28;20037;-76
2024/01/22 11:52:37;;;;;;;0.28;0.25;;;7.40;1.00;;;;;;5045135;28;20041;-76
2024/01/22 11:55:06;;;;;;;0.17;0.17;;;7.50;4.50;;;;;;5042551;28;20029;-77
2024/01/22 11:57:36;;;;;;;0.10;0.10;;;7.50;6.30;;;;;;5038781;28;20028;-75
2024/01/22 12:00:16;;;;;;;0.63;0.60;;;7.50;20.60;;;;;;5036264;28;20045;-75
2024/01/22 12:02:46;;;;;;;0.40;0.40;;;7.50;29.90;;;;;;5055125;28;20029;-75
2024/01/22 12:05:17;;;;;;;2.33;1.30;;;7.50;67.20;;;;;;5040195;28;20202;-75
2024/01/22 12:07:53;;;;;;;0.10;0.10;;;7.50;67.10;;;;;;5038877;28;20032;-75
2024/01/22 12:10:23;;;;;;;0.20;0.20;;;7.50;90.90;;;;;;5053177;28;20048;-75
2024/01/22 12:12:56;;;;;;;1.25;1.20;;;7.60;96.20;;;;;;5040490;28;20048;-76
2024/01/22 12:15:24;;;;;;;0.25;0.25;;;7.70;99.90;;;;;;5039991;28;20025;-75
2024/01/22 12:17:51;;;;;;;0.30;0.30;;;7.70;99.90;;;;;;5040701;28;20040;-75
2024/01/22 12:20:21;;;;;;;0.47;0.45;;;7.70;99.90;;;;;;5038086;28;20033;-76
2024/01/22 12:23:03;;;;;;;0.77;0.77;;;7.80;97.20;;;;;;5039714;28;20025;-76
2024/01/22 12:25:37;;;;;;;0.20;0.20;;;7.80;93.60;;;;;;5040332;28;20025;-75
2024/01/22 12:28:07;;;;;;;1.40;0.52;;;7.80;99.90;;;;;;5036837;28;20040;-75
2024/01/22 12:30:34;;;;;;;2.55;1.13;;;7.80;92.60;;;;;;5039689;28;20032;-75
2024/01/22 12:33:00;;;;;;;0.38;0.38;;;7.80;97.50;;;;;;5043184;28;20457;-75
2024/01/22 12:35:26;;;;;;;0.10;0.10;;;7.90;90.30;;;;;;5040843;28;20026;-75
2024/01/22 12:37:52;;;;;;;0.90;0.50;;;7.90;90.00;;;;;;5040974;28;20453;-75
2024/01/22 12:40:19;;;;;;;1.42;0.73;;;7.90;89.20;;;;;;5036352;28;20053;-75
2024/01/22 12:42:48;;;;;;;0.65;0.65;;;7.90;91.70;;;;;;5041025;28;20032;-75
2024/01/22 12:45:24;;;;;;;1.45;1.27;;;7.90;94.60;;;;;;5039965;28;20043;-76
2024/01/22 12:47:50;;;;;;;0.60;0.60;;;7.90;75.60;;;;;;5037119;28;20028;-75
2024/01/22 12:50:20;;;;;;;0.88;0.85;;;8.00;79.50;;;;;;5036860;28;20033;-76
2024/01/22 12:52:46;;;;;;;1.33;1.23;;;7.90;90.10;;;;;;5046788;28;20029;-76
2024/01/22 12:55:14;;;;;;;0.35;0.35;;;8.00;98.70;;;;;;5040926;28;20032;-75
2024/01/22 12:57:42;;;;;;;1.45;1.20;;;8.00;99.90;;;;;;5040324;28;20025;-75
2024/01/22 13:00:08;;;;;;;2.85;2.65;;;8.10;99.30;;;;;;5038786;28;20028;-75